sensor_id;sensor_type;location;lat;lon;timestamp;P1;durP1;ratioP1;P2;durP2;ratioP2
63189;SDS011;49286;44.460;26.114;2022-12-18T00:00:43;19.48;;;12.68;;
63189;SDS011;49286;44.460;26.114;2022-12-18T00:03:09;21.35;;;13.05;;
63189;SDS011;49286;44.460;26.114;2022-12-18T00:05:35;19.50;;;12.77;;
63189;SDS011;49286;44.460;26.114;2022-12-18T00:08:01;20.65;;;12.77;;
63189;SDS011;49286;44.460;26.114;2022-12-18T00:10:28;17.40;;;12.65;;
63189;SDS011;49286;44.460;26.114;2022-12-18T00:12:53;21.80;;;14.15;;
63189;SDS011;49286;44.460;26.114;2022-12-18T00:15:19;24.38;;;13.65;;
63189;SDS011;49286;44.460;26.114;2022-12-18T00:17:45;24.40;;;13.55;;
63189;SDS011;49286;44.460;26.114;2022-12-18T00:20:10;21.70;;;11.45;;
63189;SDS011;49286;44.460;26.114;2022-12-18T00:22:36;19.80;;;11.63;;
63189;SDS011;49286;44.460;26.114;2022-12-18T00:25:01;28.48;;;13.18;;
63189;SDS011;49286;44.460;26.114;2022-12-18T00:27:27;24.55;;;13.15;;
63189;SDS011;49286;44.460;26.114;2022-12-18T00:29:52;19.92;;;14.30;;
63189;SDS011;49286;44.460;26.114;2022-12-18T00:32:18;24.05;;;14.45;;
63189;SDS011;49286;44.460;26.114;2022-12-18T00:34:43;22.20;;;14.13;;
63189;SDS011;49286;44.460;26.114;2022-12-18T00:37:09;21.95;;;14.50;;
63189;SDS011;49286;44.460;26.114;2022-12-18T00:39:34;18.73;;;11.38;;
63189;SDS011;49286;44.460;26.114;2022-12-18T00:42:00;24.23;;;14.93;;
63189;SDS011;49286;44.460;26.114;2022-12-18T00:44:44;24.75;;;13.75;;
63189;SDS011;49286;44.460;26.114;2022-12-18T00:47:09;23.42;;;14.25;;
63189;SDS011;49286;44.460;26.114;2022-12-18T00:49:35;26.60;;;14.32;;
63189;SDS011;49286;44.460;26.114;2022-12-18T00:52:00;21.27;;;13.48;;
63189;SDS011;49286;44.460;26.114;2022-12-18T00:54:26;20.80;;;13.05;;
63189;SDS011;49286;44.460;26.114;2022-12-18T00:56:51;21.92;;;13.15;;
63189;SDS011;49286;44.460;26.114;2022-12-18T00:59:17;27.17;;;14.73;;
63189;SDS011;49286;44.460;26.114;2022-12-18T01:01:44;27.15;;;14.50;;
63189;SDS011;49286;44.460;26.114;2022-12-18T01:04:10;23.10;;;13.25;;
63189;SDS011;49286;44.460;26.114;2022-12-18T01:06:36;26.20;;;15.15;;
63189;SDS011;49286;44.460;26.114;2022-12-18T01:09:02;22.58;;;15.70;;
63189;SDS011;49286;44.460;26.114;2022-12-18T01:11:28;26.80;;;15.40;;
63189;SDS011;49286;44.460;26.114;2022-12-18T01:13:53;24.25;;;13.55;;
63189;SDS011;49286;44.460;26.114;2022-12-18T01:16:19;30.88;;;15.50;;
63189;SDS011;49286;44.460;26.114;2022-12-18T01:18:45;27.02;;;15.02;;
63189;SDS011;49286;44.460;26.114;2022-12-18T01:21:12;28.67;;;15.07;;
63189;SDS011;49286;44.460;26.114;2022-12-18T01:23:41;24.08;;;14.95;;
63189;SDS011;49286;44.460;26.114;2022-12-18T01:26:18;26.30;;;14.30;;
63189;SDS011;49286;44.460;26.114;2022-12-18T01:28:44;24.90;;;16.83;;
63189;SDS011;49286;44.460;26.114;2022-12-18T01:31:23;23.98;;;12.80;;
63189;SDS011;49286;44.460;26.114;2022-12-18T01:33:53;25.00;;;13.90;;
63189;SDS011;49286;44.460;26.114;2022-12-18T01:36:23;29.08;;;15.30;;
63189;SDS011;49286;44.460;26.114;2022-12-18T01:38:53;31.98;;;15.90;;
63189;SDS011;49286;44.460;26.114;2022-12-18T01:41:20;25.08;;;15.55;;
63189;SDS011;49286;44.460;26.114;2022-12-18T01:46:13;26.33;;;16.75;;
63189;SDS011;49286;44.460;26.114;2022-12-18T01:48:40;28.35;;;15.75;;
63189;SDS011;49286;44.460;26.114;2022-12-18T01:51:09;28.30;;;16.98;;
63189;SDS011;49286;44.460;26.114;2022-12-18T01:53:36;26.70;;;15.05;;
63189;SDS011;49286;44.460;26.114;2022-12-18T01:56:04;34.70;;;16.15;;
63189;SDS011;49286;44.460;26.114;2022-12-18T01:58:38;24.48;;;13.77;;
63189;SDS011;49286;44.460;26.114;2022-12-18T02:01:11;26.60;;;15.95;;
63189;SDS011;49286;44.460;26.114;2022-12-18T02:03:36;27.85;;;15.45;;
63189;SDS011;49286;44.460;26.114;2022-12-18T02:06:10;27.88;;;17.63;;
63189;SDS011;49286;44.460;26.114;2022-12-18T02:24:58;31.33;;;15.52;;
63189;SDS011;49286;44.460;26.114;2022-12-18T02:27:37;32.85;;;16.92;;
63189;SDS011;49286;44.460;26.114;2022-12-18T02:30:05;33.78;;;16.73;;
63189;SDS011;49286;44.460;26.114;2022-12-18T02:32:43;28.95;;;17.40;;
63189;SDS011;49286;44.460;26.114;2022-12-18T02:35:14;35.85;;;18.02;;
63189;SDS011;49286;44.460;26.114;2022-12-18T02:37:42;32.50;;;18.20;;
63189;SDS011;49286;44.460;26.114;2022-12-18T02:40:11;35.88;;;22.60;;
63189;SDS011;49286;44.460;26.114;2022-12-18T02:42:39;37.13;;;18.45;;
63189;SDS011;49286;44.460;26.114;2022-12-18T02:45:04;28.85;;;17.75;;
63189;SDS011;49286;44.460;26.114;2022-12-18T02:47:31;33.05;;;17.85;;
63189;SDS011;49286;44.460;26.114;2022-12-18T03:01:11;36.35;;;20.65;;
63189;SDS011;49286;44.460;26.114;2022-12-18T03:03:39;34.58;;;19.08;;
63189;SDS011;49286;44.460;26.114;2022-12-18T03:06:13;41.03;;;18.90;;
63189;SDS011;49286;44.460;26.114;2022-12-18T03:09:03;37.97;;;20.88;;
63189;SDS011;49286;44.460;26.114;2022-12-18T03:11:34;41.53;;;20.70;;
63189;SDS011;49286;44.460;26.114;2022-12-18T03:14:23;37.45;;;19.80;;
63189;SDS011;49286;44.460;26.114;2022-12-18T03:16:53;34.35;;;18.10;;
63189;SDS011;49286;44.460;26.114;2022-12-18T03:19:23;33.88;;;19.83;;
63189;SDS011;49286;44.460;26.114;2022-12-18T03:21:53;47.92;;;20.90;;
63189;SDS011;49286;44.460;26.114;2022-12-18T03:24:21;37.90;;;18.88;;
63189;SDS011;49286;44.460;26.114;2022-12-18T03:26:50;32.22;;;19.52;;
63189;SDS011;49286;44.460;26.114;2022-12-18T03:29:24;36.08;;;21.92;;
63189;SDS011;49286;44.460;26.114;2022-12-18T03:32:12;35.77;;;18.90;;
63189;SDS011;49286;44.460;26.114;2022-12-18T03:34:43;33.38;;;20.98;;
63189;SDS011;49286;44.460;26.114;2022-12-18T03:37:13;37.75;;;22.95;;
63189;SDS011;49286;44.460;26.114;2022-12-18T03:39:39;39.72;;;20.08;;
63189;SDS011;49286;44.460;26.114;2022-12-18T03:42:07;39.78;;;22.45;;
63189;SDS011;49286;44.460;26.114;2022-12-18T03:47:16;41.42;;;23.02;;
63189;SDS011;49286;44.460;26.114;2022-12-18T03:52:33;44.17;;;21.55;;
63189;SDS011;49286;44.460;26.114;2022-12-18T03:55:03;34.00;;;23.42;;
63189;SDS011;49286;44.460;26.114;2022-12-18T03:57:30;36.65;;;21.33;;
63189;SDS011;49286;44.460;26.114;2022-12-18T03:59:59;35.20;;;22.27;;
63189;SDS011;49286;44.460;26.114;2022-12-18T04:02:28;40.10;;;22.67;;
63189;SDS011;49286;44.460;26.114;2022-12-18T04:04:57;41.17;;;21.25;;
63189;SDS011;49286;44.460;26.114;2022-12-18T04:07:25;34.92;;;21.75;;
63189;SDS011;49286;44.460;26.114;2022-12-18T04:09:53;38.88;;;21.00;;
63189;SDS011;49286;44.460;26.114;2022-12-18T04:12:23;42.15;;;24.25;;
63189;SDS011;49286;44.460;26.114;2022-12-18T04:14:50;50.95;;;22.15;;
63189;SDS011;49286;44.460;26.114;2022-12-18T04:17:16;32.60;;;23.60;;
63189;SDS011;49286;44.460;26.114;2022-12-18T04:19:41;45.22;;;20.92;;
63189;SDS011;49286;44.460;26.114;2022-12-18T04:22:08;43.70;;;22.50;;
63189;SDS011;49286;44.460;26.114;2022-12-18T04:24:35;37.42;;;21.40;;
63189;SDS011;49286;44.460;26.114;2022-12-18T04:27:01;42.30;;;24.42;;
63189;SDS011;49286;44.460;26.114;2022-12-18T04:29:27;42.92;;;24.55;;
63189;SDS011;49286;44.460;26.114;2022-12-18T04:31:53;45.47;;;24.73;;
63189;SDS011;49286;44.460;26.114;2022-12-18T04:34:19;37.42;;;21.27;;
63189;SDS011;49286;44.460;26.114;2022-12-18T04:36:45;42.42;;;22.13;;
63189;SDS011;49286;44.460;26.114;2022-12-18T04:39:10;51.20;;;24.10;;
63189;SDS011;49286;44.460;26.114;2022-12-18T04:41:36;37.08;;;20.85;;
63189;SDS011;49286;44.460;26.114;2022-12-18T04:44:01;43.03;;;23.45;;
63189;SDS011;49286;44.460;26.114;2022-12-18T04:46:27;39.17;;;21.83;;
63189;SDS011;49286;44.460;26.114;2022-12-18T04:48:52;43.13;;;23.80;;
63189;SDS011;49286;44.460;26.114;2022-12-18T04:51:18;37.55;;;21.88;;
63189;SDS011;49286;44.460;26.114;2022-12-18T04:53:43;52.35;;;22.02;;
63189;SDS011;49286;44.460;26.114;2022-12-18T04:56:09;40.97;;;20.95;;
63189;SDS011;49286;44.460;26.114;2022-12-18T04:58:37;38.97;;;20.90;;
63189;SDS011;49286;44.460;26.114;2022-12-18T05:01:04;45.95;;;22.45;;
63189;SDS011;49286;44.460;26.114;2022-12-18T05:03:30;35.78;;;19.60;;
63189;SDS011;49286;44.460;26.114;2022-12-18T05:05:56;40.65;;;23.25;;
63189;SDS011;49286;44.460;26.114;2022-12-18T05:08:22;44.78;;;22.40;;
63189;SDS011;49286;44.460;26.114;2022-12-18T05:10:48;37.40;;;22.67;;
63189;SDS011;49286;44.460;26.114;2022-12-18T05:13:13;40.83;;;21.20;;
63189;SDS011;49286;44.460;26.114;2022-12-18T05:15:38;36.92;;;23.33;;
63189;SDS011;49286;44.460;26.114;2022-12-18T05:18:04;39.08;;;22.02;;
63189;SDS011;49286;44.460;26.114;2022-12-18T05:20:30;50.88;;;23.63;;
63189;SDS011;49286;44.460;26.114;2022-12-18T05:22:56;43.50;;;22.52;;
63189;SDS011;49286;44.460;26.114;2022-12-18T05:25:21;40.33;;;23.80;;
63189;SDS011;49286;44.460;26.114;2022-12-18T05:27:47;39.10;;;21.02;;
63189;SDS011;49286;44.460;26.114;2022-12-18T05:30:13;50.78;;;27.13;;
63189;SDS011;49286;44.460;26.114;2022-12-18T05:32:40;44.78;;;22.27;;
63189;SDS011;49286;44.460;26.114;2022-12-18T05:35:06;50.80;;;24.88;;
63189;SDS011;49286;44.460;26.114;2022-12-18T05:37:33;46.00;;;24.20;;
63189;SDS011;49286;44.460;26.114;2022-12-18T05:39:58;40.05;;;21.08;;
63189;SDS011;49286;44.460;26.114;2022-12-18T05:42:24;49.67;;;22.65;;
63189;SDS011;49286;44.460;26.114;2022-12-18T05:44:50;42.03;;;23.85;;
63189;SDS011;49286;44.460;26.114;2022-12-18T05:47:15;43.10;;;24.05;;
63189;SDS011;49286;44.460;26.114;2022-12-18T05:49:41;32.22;;;19.85;;
63189;SDS011;49286;44.460;26.114;2022-12-18T05:52:06;32.78;;;18.77;;
63189;SDS011;49286;44.460;26.114;2022-12-18T05:54:32;26.10;;;18.23;;
63189;SDS011;49286;44.460;26.114;2022-12-18T05:56:57;26.40;;;15.57;;
63189;SDS011;49286;44.460;26.114;2022-12-18T05:59:23;34.03;;;14.93;;
63189;SDS011;49286;44.460;26.114;2022-12-18T06:01:49;21.70;;;13.45;;
63189;SDS011;49286;44.460;26.114;2022-12-18T06:04:14;26.98;;;13.02;;
63189;SDS011;49286;44.460;26.114;2022-12-18T06:06:40;21.83;;;14.13;;
63189;SDS011;49286;44.460;26.114;2022-12-18T06:09:05;22.55;;;13.50;;
63189;SDS011;49286;44.460;26.114;2022-12-18T06:11:37;23.85;;;14.05;;
63189;SDS011;49286;44.460;26.114;2022-12-18T06:14:04;19.65;;;13.98;;
63189;SDS011;49286;44.460;26.114;2022-12-18T06:16:31;20.13;;;11.95;;
63189;SDS011;49286;44.460;26.114;2022-12-18T06:18:57;21.30;;;13.82;;
63189;SDS011;49286;44.460;26.114;2022-12-18T06:21:23;21.58;;;13.75;;
63189;SDS011;49286;44.460;26.114;2022-12-18T06:23:49;25.63;;;13.95;;
63189;SDS011;49286;44.460;26.114;2022-12-18T06:26:14;25.10;;;14.07;;
63189;SDS011;49286;44.460;26.114;2022-12-18T06:28:40;23.42;;;15.65;;
63189;SDS011;49286;44.460;26.114;2022-12-18T06:31:07;24.83;;;16.15;;
63189;SDS011;49286;44.460;26.114;2022-12-18T06:33:33;27.45;;;17.13;;
63189;SDS011;49286;44.460;26.114;2022-12-18T06:36:03;25.60;;;13.93;;
63189;SDS011;49286;44.460;26.114;2022-12-18T06:38:37;30.63;;;15.60;;
63189;SDS011;49286;44.460;26.114;2022-12-18T06:41:11;26.33;;;15.98;;
63189;SDS011;49286;44.460;26.114;2022-12-18T06:43:38;19.92;;;13.98;;
63189;SDS011;49286;44.460;26.114;2022-12-18T06:46:04;15.52;;;10.55;;
63189;SDS011;49286;44.460;26.114;2022-12-18T06:48:31;21.85;;;12.48;;
63189;SDS011;49286;44.460;26.114;2022-12-18T06:50:56;16.85;;;11.80;;
63189;SDS011;49286;44.460;26.114;2022-12-18T06:53:22;15.88;;;11.07;;
63189;SDS011;49286;44.460;26.114;2022-12-18T06:55:47;21.08;;;12.20;;
63189;SDS011;49286;44.460;26.114;2022-12-18T06:58:13;19.58;;;11.55;;
63189;SDS011;49286;44.460;26.114;2022-12-18T07:00:38;16.30;;;10.20;;
63189;SDS011;49286;44.460;26.114;2022-12-18T07:03:04;17.40;;;10.75;;
63189;SDS011;49286;44.460;26.114;2022-12-18T07:05:29;20.42;;;11.05;;
63189;SDS011;49286;44.460;26.114;2022-12-18T07:07:55;20.90;;;14.48;;
63189;SDS011;49286;44.460;26.114;2022-12-18T07:10:21;18.60;;;14.07;;
63189;SDS011;49286;44.460;26.114;2022-12-18T07:12:47;22.73;;;13.20;;
63189;SDS011;49286;44.460;26.114;2022-12-18T07:15:12;19.88;;;12.25;;
63189;SDS011;49286;44.460;26.114;2022-12-18T07:17:37;20.48;;;13.65;;
63189;SDS011;49286;44.460;26.114;2022-12-18T07:20:03;21.58;;;13.43;;
63189;SDS011;49286;44.460;26.114;2022-12-18T07:22:29;19.02;;;14.00;;
63189;SDS011;49286;44.460;26.114;2022-12-18T07:24:55;23.05;;;14.02;;
63189;SDS011;49286;44.460;26.114;2022-12-18T07:27:20;16.77;;;12.13;;
63189;SDS011;49286;44.460;26.114;2022-12-18T07:29:46;19.77;;;13.57;;
63189;SDS011;49286;44.460;26.114;2022-12-18T07:32:12;34.17;;;15.85;;
63189;SDS011;49286;44.460;26.114;2022-12-18T07:34:37;23.42;;;16.63;;
63189;SDS011;49286;44.460;26.114;2022-12-18T07:37:03;33.10;;;19.33;;
63189;SDS011;49286;44.460;26.114;2022-12-18T07:39:28;30.35;;;16.65;;
63189;SDS011;49286;44.460;26.114;2022-12-18T07:41:54;32.47;;;16.75;;
63189;SDS011;49286;44.460;26.114;2022-12-18T07:44:38;30.23;;;16.42;;
63189;SDS011;49286;44.460;26.114;2022-12-18T07:47:04;30.95;;;16.70;;
63189;SDS011;49286;44.460;26.114;2022-12-18T07:49:29;31.45;;;19.40;;
63189;SDS011;49286;44.460;26.114;2022-12-18T07:51:55;29.60;;;17.30;;
63189;SDS011;49286;44.460;26.114;2022-12-18T07:54:23;28.02;;;15.57;;
63189;SDS011;49286;44.460;26.114;2022-12-18T07:56:49;32.50;;;18.08;;
63189;SDS011;49286;44.460;26.114;2022-12-18T07:59:15;31.48;;;19.88;;
63189;SDS011;49286;44.460;26.114;2022-12-18T08:01:40;35.38;;;21.42;;
63189;SDS011;49286;44.460;26.114;2022-12-18T08:04:06;35.58;;;20.23;;
63189;SDS011;49286;44.460;26.114;2022-12-18T08:06:31;40.88;;;23.42;;
63189;SDS011;49286;44.460;26.114;2022-12-18T08:08:57;32.00;;;19.33;;
63189;SDS011;49286;44.460;26.114;2022-12-18T08:11:23;38.75;;;23.70;;
63189;SDS011;49286;44.460;26.114;2022-12-18T08:13:50;35.97;;;21.58;;
63189;SDS011;49286;44.460;26.114;2022-12-18T08:16:15;35.85;;;19.88;;
63189;SDS011;49286;44.460;26.114;2022-12-18T08:18:41;35.00;;;20.63;;
63189;SDS011;49286;44.460;26.114;2022-12-18T08:21:10;37.20;;;21.05;;
63189;SDS011;49286;44.460;26.114;2022-12-18T08:23:37;29.23;;;18.63;;
63189;SDS011;49286;44.460;26.114;2022-12-18T08:26:03;39.70;;;22.13;;
63189;SDS011;49286;44.460;26.114;2022-12-18T08:28:28;36.28;;;22.23;;
63189;SDS011;49286;44.460;26.114;2022-12-18T08:30:54;35.03;;;21.83;;
63189;SDS011;49286;44.460;26.114;2022-12-18T08:33:20;33.22;;;20.80;;
63189;SDS011;49286;44.460;26.114;2022-12-18T08:35:45;30.65;;;21.33;;
63189;SDS011;49286;44.460;26.114;2022-12-18T08:38:10;36.50;;;20.15;;
63189;SDS011;49286;44.460;26.114;2022-12-18T08:40:36;38.45;;;22.45;;
63189;SDS011;49286;44.460;26.114;2022-12-18T08:43:01;28.80;;;20.00;;
63189;SDS011;49286;44.460;26.114;2022-12-18T08:45:59;36.45;;;22.00;;
63189;SDS011;49286;44.460;26.114;2022-12-18T08:48:25;37.97;;;21.88;;
63189;SDS011;49286;44.460;26.114;2022-12-18T08:50:57;32.53;;;19.80;;
63189;SDS011;49286;44.460;26.114;2022-12-18T08:53:26;36.70;;;22.77;;
63189;SDS011;49286;44.460;26.114;2022-12-18T08:55:52;33.78;;;22.08;;
63189;SDS011;49286;44.460;26.114;2022-12-18T08:58:18;39.22;;;22.80;;
63189;SDS011;49286;44.460;26.114;2022-12-18T09:00:43;41.85;;;21.77;;
63189;SDS011;49286;44.460;26.114;2022-12-18T09:03:13;37.25;;;21.02;;
63189;SDS011;49286;44.460;26.114;2022-12-18T09:05:39;34.83;;;21.52;;
63189;SDS011;49286;44.460;26.114;2022-12-18T09:08:05;34.50;;;23.17;;
63189;SDS011;49286;44.460;26.114;2022-12-18T09:10:31;47.25;;;23.05;;
63189;SDS011;49286;44.460;26.114;2022-12-18T09:12:57;33.85;;;21.40;;
63189;SDS011;49286;44.460;26.114;2022-12-18T09:15:22;39.58;;;21.55;;
63189;SDS011;49286;44.460;26.114;2022-12-18T09:17:48;35.65;;;21.67;;
63189;SDS011;49286;44.460;26.114;2022-12-18T09:20:14;36.83;;;20.33;;
63189;SDS011;49286;44.460;26.114;2022-12-18T09:22:41;34.80;;;21.17;;
63189;SDS011;49286;44.460;26.114;2022-12-18T09:25:06;30.23;;;19.30;;
63189;SDS011;49286;44.460;26.114;2022-12-18T09:27:34;28.75;;;19.20;;
63189;SDS011;49286;44.460;26.114;2022-12-18T09:30:00;33.13;;;17.45;;
63189;SDS011;49286;44.460;26.114;2022-12-18T09:32:26;40.67;;;15.02;;
63189;SDS011;49286;44.460;26.114;2022-12-18T09:34:52;22.05;;;13.88;;
63189;SDS011;49286;44.460;26.114;2022-12-18T09:37:17;26.35;;;13.45;;
63189;SDS011;49286;44.460;26.114;2022-12-18T09:39:43;29.63;;;13.30;;
63189;SDS011;49286;44.460;26.114;2022-12-18T09:42:10;22.65;;;13.68;;
63189;SDS011;49286;44.460;26.114;2022-12-18T09:44:47;21.77;;;12.30;;
63189;SDS011;49286;44.460;26.114;2022-12-18T09:49:58;23.15;;;14.18;;
63189;SDS011;49286;44.460;26.114;2022-12-18T09:52:39;19.63;;;13.37;;
63189;SDS011;49286;44.460;26.114;2022-12-18T09:55:24;22.90;;;14.63;;
63189;SDS011;49286;44.460;26.114;2022-12-18T09:57:57;22.35;;;13.25;;
63189;SDS011;49286;44.460;26.114;2022-12-18T10:00:29;24.40;;;14.35;;
63189;SDS011;49286;44.460;26.114;2022-12-18T10:02:59;26.27;;;14.00;;
63189;SDS011;49286;44.460;26.114;2022-12-18T10:07:55;23.35;;;12.82;;
63189;SDS011;49286;44.460;26.114;2022-12-18T10:13:23;25.98;;;14.10;;
63189;SDS011;49286;44.460;26.114;2022-12-18T10:22:07;24.17;;;15.52;;
63189;SDS011;49286;44.460;26.114;2022-12-18T10:27:21;29.67;;;16.58;;
63189;SDS011;49286;44.460;26.114;2022-12-18T10:29:49;38.80;;;19.63;;
63189;SDS011;49286;44.460;26.114;2022-12-18T10:32:19;24.92;;;17.35;;
63189;SDS011;49286;44.460;26.114;2022-12-18T10:34:50;32.35;;;17.20;;
63189;SDS011;49286;44.460;26.114;2022-12-18T10:37:23;28.38;;;16.60;;
63189;SDS011;49286;44.460;26.114;2022-12-18T10:40:10;24.70;;;15.63;;
63189;SDS011;49286;44.460;26.114;2022-12-18T10:42:39;26.27;;;15.25;;
63189;SDS011;49286;44.460;26.114;2022-12-18T10:45:14;30.67;;;19.00;;
63189;SDS011;49286;44.460;26.114;2022-12-18T10:47:45;26.83;;;15.52;;
63189;SDS011;49286;44.460;26.114;2022-12-18T10:52:59;27.70;;;16.05;;
63189;SDS011;49286;44.460;26.114;2022-12-18T10:55:31;25.05;;;14.73;;
63189;SDS011;49286;44.460;26.114;2022-12-18T11:01:13;35.75;;;19.05;;
63189;SDS011;49286;44.460;26.114;2022-12-18T11:03:46;31.05;;;18.35;;
63189;SDS011;49286;44.460;26.114;2022-12-18T11:06:16;27.10;;;16.05;;
63189;SDS011;49286;44.460;26.114;2022-12-18T11:08:44;33.10;;;18.88;;
63189;SDS011;49286;44.460;26.114;2022-12-18T11:11:23;36.78;;;17.42;;
63189;SDS011;49286;44.460;26.114;2022-12-18T11:14:05;30.92;;;18.55;;
63189;SDS011;49286;44.460;26.114;2022-12-18T11:16:46;33.83;;;17.58;;
63189;SDS011;49286;44.460;26.114;2022-12-18T11:19:34;33.78;;;18.55;;
63189;SDS011;49286;44.460;26.114;2022-12-18T11:22:03;32.60;;;18.48;;
63189;SDS011;49286;44.460;26.114;2022-12-18T11:24:53;28.65;;;19.60;;
63189;SDS011;49286;44.460;26.114;2022-12-18T11:27:27;29.42;;;17.77;;
63189;SDS011;49286;44.460;26.114;2022-12-18T11:30:06;35.17;;;17.55;;
63189;SDS011;49286;44.460;26.114;2022-12-18T11:33:09;29.60;;;16.92;;
63189;SDS011;49286;44.460;26.114;2022-12-18T11:35:52;30.85;;;16.98;;
63189;SDS011;49286;44.460;26.114;2022-12-18T11:38:25;32.70;;;15.98;;
63189;SDS011;49286;44.460;26.114;2022-12-18T11:41:01;29.75;;;15.90;;
63189;SDS011;49286;44.460;26.114;2022-12-18T11:43:34;36.15;;;18.15;;
63189;SDS011;49286;44.460;26.114;2022-12-18T11:46:30;32.90;;;17.92;;
63189;SDS011;49286;44.460;26.114;2022-12-18T11:49:22;34.80;;;17.38;;
63189;SDS011;49286;44.460;26.114;2022-12-18T11:54:15;29.13;;;18.20;;
63189;SDS011;49286;44.460;26.114;2022-12-18T12:05:33;34.25;;;18.27;;
63189;SDS011;49286;44.460;26.114;2022-12-18T12:13:27;34.50;;;20.02;;
63189;SDS011;49286;44.460;26.114;2022-12-18T12:16:14;36.03;;;18.58;;
63189;SDS011;49286;44.460;26.114;2022-12-18T12:24:01;29.58;;;17.25;;
63189;SDS011;49286;44.460;26.114;2022-12-18T12:26:31;32.47;;;16.48;;
63189;SDS011;49286;44.460;26.114;2022-12-18T12:31:59;39.80;;;17.90;;
63189;SDS011;49286;44.460;26.114;2022-12-18T12:34:26;33.65;;;19.33;;
63189;SDS011;49286;44.460;26.114;2022-12-18T12:39:52;30.92;;;16.80;;
63189;SDS011;49286;44.460;26.114;2022-12-18T12:43:07;28.63;;;17.80;;
63189;SDS011;49286;44.460;26.114;2022-12-18T12:45:47;36.22;;;19.58;;
63189;SDS011;49286;44.460;26.114;2022-12-18T12:48:34;37.58;;;19.67;;
63189;SDS011;49286;44.460;26.114;2022-12-18T12:51:16;27.70;;;17.00;;
63189;SDS011;49286;44.460;26.114;2022-12-18T12:53:47;31.33;;;16.83;;
63189;SDS011;49286;44.460;26.114;2022-12-18T12:56:15;26.65;;;15.52;;
63189;SDS011;49286;44.460;26.114;2022-12-18T13:07:35;35.10;;;18.08;;
63189;SDS011;49286;44.460;26.114;2022-12-18T13:18:26;32.25;;;20.25;;
63189;SDS011;49286;44.460;26.114;2022-12-18T13:25:49;33.70;;;21.35;;
63189;SDS011;49286;44.460;26.114;2022-12-18T13:28:16;36.45;;;18.35;;
63189;SDS011;49286;44.460;26.114;2022-12-18T13:30:50;43.75;;;19.42;;
63189;SDS011;49286;44.460;26.114;2022-12-18T13:40:58;32.08;;;18.90;;
63189;SDS011;49286;44.460;26.114;2022-12-18T13:48:31;31.50;;;19.42;;
63189;SDS011;49286;44.460;26.114;2022-12-18T13:51:03;36.53;;;20.75;;
63189;SDS011;49286;44.460;26.114;2022-12-18T13:56:24;36.15;;;20.33;;
63189;SDS011;49286;44.460;26.114;2022-12-18T13:59:11;34.40;;;20.10;;
63189;SDS011;49286;44.460;26.114;2022-12-18T14:09:39;31.35;;;18.67;;
63189;SDS011;49286;44.460;26.114;2022-12-18T14:12:06;38.42;;;20.35;;
63189;SDS011;49286;44.460;26.114;2022-12-18T14:15:00;34.78;;;20.40;;
63189;SDS011;49286;44.460;26.114;2022-12-18T14:17:26;35.58;;;18.85;;
63189;SDS011;49286;44.460;26.114;2022-12-18T14:19:51;41.33;;;21.33;;
63189;SDS011;49286;44.460;26.114;2022-12-18T14:22:21;44.53;;;24.00;;
63189;SDS011;49286;44.460;26.114;2022-12-18T14:27:41;38.30;;;20.30;;
63189;SDS011;49286;44.460;26.114;2022-12-18T14:33:10;34.63;;;20.73;;
63189;SDS011;49286;44.460;26.114;2022-12-18T14:35:40;33.72;;;19.05;;
63189;SDS011;49286;44.460;26.114;2022-12-18T14:40:57;38.55;;;20.60;;
63189;SDS011;49286;44.460;26.114;2022-12-18T14:43:24;26.55;;;15.88;;
63189;SDS011;49286;44.460;26.114;2022-12-18T14:45:51;30.98;;;19.83;;
63189;SDS011;49286;44.460;26.114;2022-12-18T14:51:13;29.33;;;18.48;;
63189;SDS011;49286;44.460;26.114;2022-12-18T14:53:43;29.13;;;16.13;;
63189;SDS011;49286;44.460;26.114;2022-12-18T14:56:18;32.40;;;14.70;;
63189;SDS011;49286;44.460;26.114;2022-12-18T14:58:47;29.02;;;16.23;;
63189;SDS011;49286;44.460;26.114;2022-12-18T15:01:18;27.42;;;15.27;;
63189;SDS011;49286;44.460;26.114;2022-12-18T15:03:47;30.58;;;18.33;;
63189;SDS011;49286;44.460;26.114;2022-12-18T15:06:55;33.17;;;19.55;;
63189;SDS011;49286;44.460;26.114;2022-12-18T15:09:22;27.20;;;16.85;;
63189;SDS011;49286;44.460;26.114;2022-12-18T15:11:49;26.00;;;15.50;;
63189;SDS011;49286;44.460;26.114;2022-12-18T15:14:30;33.35;;;15.82;;
63189;SDS011;49286;44.460;26.114;2022-12-18T15:17:03;29.15;;;14.73;;
63189;SDS011;49286;44.460;26.114;2022-12-18T15:19:38;32.90;;;16.73;;
63189;SDS011;49286;44.460;26.114;2022-12-18T15:22:20;31.40;;;18.00;;
63189;SDS011;49286;44.460;26.114;2022-12-18T15:24:48;31.55;;;18.75;;
63189;SDS011;49286;44.460;26.114;2022-12-18T15:27:33;25.15;;;17.30;;
63189;SDS011;49286;44.460;26.114;2022-12-18T15:32:34;32.10;;;18.40;;
63189;SDS011;49286;44.460;26.114;2022-12-18T15:37:36;32.10;;;17.50;;
63189;SDS011;49286;44.460;26.114;2022-12-18T15:40:04;51.08;;;27.70;;
63189;SDS011;49286;44.460;26.114;2022-12-18T15:42:30;30.08;;;17.70;;
63189;SDS011;49286;44.460;26.114;2022-12-18T15:45:14;30.58;;;17.73;;
63189;SDS011;49286;44.460;26.114;2022-12-18T15:47:41;29.73;;;19.25;;
63189;SDS011;49286;44.460;26.114;2022-12-18T15:50:07;31.52;;;19.17;;
63189;SDS011;49286;44.460;26.114;2022-12-18T15:52:36;30.52;;;18.63;;
63189;SDS011;49286;44.460;26.114;2022-12-18T15:55:12;33.65;;;21.42;;
63189;SDS011;49286;44.460;26.114;2022-12-18T15:57:57;56.10;;;21.73;;
63189;SDS011;49286;44.460;26.114;2022-12-18T16:00:23;35.67;;;19.25;;
63189;SDS011;49286;44.460;26.114;2022-12-18T16:02:48;33.95;;;21.02;;
63189;SDS011;49286;44.460;26.114;2022-12-18T16:05:14;36.38;;;19.08;;
63189;SDS011;49286;44.460;26.114;2022-12-18T16:07:42;32.95;;;18.70;;
63189;SDS011;49286;44.460;26.114;2022-12-18T16:10:08;33.80;;;17.83;;
63189;SDS011;49286;44.460;26.114;2022-12-18T16:12:34;31.42;;;20.25;;
63189;SDS011;49286;44.460;26.114;2022-12-18T16:15:00;28.92;;;19.55;;
63189;SDS011;49286;44.460;26.114;2022-12-18T16:17:26;36.33;;;20.67;;
63189;SDS011;49286;44.460;26.114;2022-12-18T16:19:51;32.47;;;20.80;;
63189;SDS011;49286;44.460;26.114;2022-12-18T16:24:46;33.35;;;19.65;;
63189;SDS011;49286;44.460;26.114;2022-12-18T16:27:12;34.45;;;21.60;;
63189;SDS011;49286;44.460;26.114;2022-12-18T16:29:37;35.38;;;21.95;;
63189;SDS011;49286;44.460;26.114;2022-12-18T16:32:03;36.53;;;21.98;;
63189;SDS011;49286;44.460;26.114;2022-12-18T16:34:29;35.72;;;21.70;;
63189;SDS011;49286;44.460;26.114;2022-12-18T16:36:58;33.40;;;19.63;;
63189;SDS011;49286;44.460;26.114;2022-12-18T16:39:25;34.63;;;19.92;;
63189;SDS011;49286;44.460;26.114;2022-12-18T16:41:51;34.95;;;17.95;;
63189;SDS011;49286;44.460;26.114;2022-12-18T16:44:17;37.83;;;21.67;;
63189;SDS011;49286;44.460;26.114;2022-12-18T16:46:43;34.33;;;20.70;;
63189;SDS011;49286;44.460;26.114;2022-12-18T16:49:10;36.30;;;22.08;;
63189;SDS011;49286;44.460;26.114;2022-12-18T16:51:37;26.65;;;18.30;;